createdAt,value
2017-02-24T00:40:11.271Z,5.37
2017-02-24T00:43:18.308Z,5.38
2017-02-24T01:01:25.174Z,5.34
2017-02-24T01:04:23.508Z,5.32
2017-02-24T01:07:36.709Z,5.31
2017-02-24T01:10:40.618Z,5.30
2017-02-24T01:13:45.853Z,5.30
2017-02-24T01:19:44.675Z,5.29
2017-02-24T01:23:00.476Z,5.30
2017-02-24T02:08:42.412Z,5.29
2017-02-24T02:11:46.089Z,5.29
2017-02-24T02:14:53.179Z,5.30
2017-02-24T02:17:57.632Z,5.30
2017-02-24T02:21:00.109Z,5.30
2017-02-24T02:24:04.658Z,5.31
2017-02-24T02:27:04.835Z,5.32
2017-02-24T02:30:15.539Z,5.35
2017-02-24T02:33:20.698Z,5.37
2017-02-24T02:48:41.000Z,5.35
2017-02-24T02:51:36.371Z,5.34
2017-02-24T02:54:52.143Z,5.28
2017-02-24T02:57:54.540Z,5.19
2017-02-24T03:00:54.797Z,5.05
2017-02-24T03:04:04.532Z,4.90
2017-02-24T03:16:22.082Z,4.34
2017-02-24T03:19:27.045Z,4.22
2017-02-24T03:22:31.911Z,4.14
2017-02-24T03:25:37.002Z,4.04
2017-02-24T03:28:34.111Z,3.90
2017-02-24T03:31:47.808Z,3.90
2017-02-24T03:34:48.368Z,3.89
2017-02-24T03:37:53.550Z,3.84
2017-02-24T03:41:04.189Z,3.74
2017-02-24T03:44:09.584Z,3.66
2017-02-24T03:47:04.889Z,3.65
2017-02-24T03:50:18.822Z,3.62
2017-02-24T03:53:11.450Z,3.58
2017-02-24T04:39:12.383Z,3.24
2017-02-24T05:06:44.209Z,2.88
2017-02-24T05:09:50.908Z,2.85
2017-02-24T05:12:54.764Z,2.82
2017-02-24T05:15:56.514Z,2.77
2017-02-24T05:18:56.806Z,2.74
2017-02-24T05:25:09.819Z,2.70
2017-02-24T05:31:16.619Z,2.69
2017-02-24T05:34:21.699Z,2.69
2017-02-24T05:37:26.249Z,2.64
2017-02-24T05:43:36.446Z,2.55
2017-02-24T05:46:41.400Z,2.50
2017-02-24T05:49:46.340Z,2.45
2017-02-24T05:52:51.111Z,2.45
2017-02-24T06:05:09.478Z,2.27
2017-02-24T06:08:09.358Z,2.26
2017-02-24T06:11:19.553Z,2.28
2017-02-24T06:17:27.182Z,2.23
2017-02-24T06:23:37.097Z,2.23
2017-02-24T06:26:44.039Z,2.20
2017-02-24T06:32:50.429Z,2.22
2017-02-24T06:35:55.260Z,2.23
2017-02-24T06:42:05.035Z,2.23
2017-02-24T06:45:01.918Z,2.24
2017-02-24T06:48:17.462Z,2.26
2017-02-24T06:51:22.060Z,2.30
2017-02-24T06:54:24.549Z,2.25
2017-02-24T06:57:28.556Z,2.23
2017-02-24T07:00:33.323Z,2.24
2017-02-24T07:03:38.591Z,2.22
2017-02-24T07:06:34.429Z,2.23
2017-02-24T07:09:47.852Z,2.25
2017-02-24T07:12:43.455Z,2.22
2017-02-24T07:15:56.742Z,2.22
2017-02-24T07:19:01.785Z,2.22
2017-02-24T07:22:06.514Z,2.24
2017-02-24T07:25:11.435Z,2.23
2017-02-24T07:28:16.081Z,2.22
2017-02-24T07:37:29.380Z,2.18
2017-02-24T07:40:34.349Z,2.17
2017-02-24T07:43:32.069Z,2.16
2017-02-24T07:46:44.514Z,2.20
2017-02-24T07:49:49.399Z,2.31
2017-02-24T07:58:53.789Z,2.49
2017-02-24T08:02:08.311Z,2.54
2017-02-24T08:05:10.605Z,2.63
2017-02-24T08:08:10.445Z,2.67
2017-02-24T08:11:20.760Z,2.66
2017-02-24T08:14:25.487Z,2.63
2017-02-24T08:17:30.634Z,2.68
2017-02-24T08:23:42.275Z,2.61
2017-02-24T09:18:26.964Z,3.00
2017-02-24T09:24:46.758Z,3.09
2017-02-24T09:27:51.273Z,3.17
2017-02-24T09:30:53.756Z,3.26
2017-02-24T09:33:57.886Z,3.36
2017-02-24T09:43:11.259Z,3.66
2017-02-24T09:46:18.151Z,3.78
2017-02-24T09:49:17.961Z,3.95
2017-02-24T09:52:24.991Z,4.16
2017-02-24T09:58:32.878Z,4.63
2017-02-24T10:01:37.996Z,4.75
2017-02-24T10:04:38.047Z,4.93
2017-02-24T10:07:48.306Z,5.35
2017-02-24T10:10:53.689Z,5.70
2017-02-24T10:13:50.713Z,6.09
2017-02-24T10:17:04.650Z,6.60
2017-02-24T10:20:10.070Z,7.30
2017-02-24T10:23:15.591Z,8.48
2017-02-24T10:29:25.911Z,9.23
2017-02-24T10:35:31.677Z,9.52
2017-02-24T10:38:42.920Z,9.36
2017-02-24T10:41:47.842Z,9.28
2017-02-24T10:44:45.239Z,9.70
2017-02-24T10:47:59.304Z,10.21
2017-02-24T10:51:04.635Z,10.83
2017-02-24T10:57:16.818Z,11.59
2017-02-24T11:09:35.132Z,11.89
2017-02-24T11:12:32.352Z,12.16
2017-02-24T11:15:45.968Z,11.76
2017-02-24T11:18:51.097Z,11.84
2017-02-24T11:31:07.308Z,13.06
2017-02-24T11:34:04.447Z,13.37
2017-02-24T11:37:18.483Z,13.10
2017-02-24T11:40:16.052Z,12.12
2017-02-24T11:43:29.899Z,12.50
2017-02-24T11:46:28.386Z,12.97
2017-02-24T11:49:36.596Z,12.88
2017-02-24T11:52:47.451Z,12.84
2017-02-24T11:55:44.975Z,13.04
2017-02-24T11:58:51.104Z,13.33
2017-02-24T12:02:00.195Z,12.86
2017-02-24T12:05:11.200Z,12.83
2017-02-24T12:08:16.627Z,12.38
2017-02-24T12:11:22.266Z,12.97
2017-02-24T12:14:27.746Z,12.79
2017-02-24T12:17:32.989Z,12.71
2017-02-24T12:20:33.179Z,13.27
2017-02-24T12:23:44.467Z,13.53
2017-02-24T12:26:42.060Z,13.79
2017-02-24T12:29:56.298Z,13.32
2017-02-24T12:32:56.847Z,12.71
2017-02-24T12:35:59.886Z,12.11
2017-02-24T12:39:13.986Z,12.13
2017-02-24T12:42:11.356Z,12.80
2017-02-24T12:45:17.562Z,13.26
2017-02-24T12:48:32.554Z,13.64
2017-02-24T12:51:33.155Z,13.73
2017-02-24T12:57:46.975Z,13.91
2017-02-24T13:00:52.612Z,13.85
2017-02-24T13:03:49.939Z,13.78
2017-02-24T13:06:59.148Z,13.38
2017-02-24T13:10:09.731Z,12.85
2017-02-24T13:16:21.129Z,12.18
2017-02-24T13:19:18.462Z,12.10
2017-02-24T13:22:32.712Z,12.22
2017-02-24T13:25:36.887Z,12.18
2017-02-24T13:28:42.343Z,12.30
2017-02-24T13:31:47.928Z,12.37
2017-02-24T13:34:53.212Z,12.46
2017-02-24T13:37:50.868Z,12.23
2017-02-24T13:41:05.018Z,12.23
2017-02-24T13:44:02.656Z,12.12
2017-02-24T13:47:16.873Z,11.87
2017-02-24T13:50:22.251Z,11.48
2017-02-24T14:02:42.913Z,11.38
2017-02-24T14:05:45.742Z,11.58
2017-02-24T14:08:51.492Z,11.41
2017-02-24T14:11:49.027Z,11.33
2017-02-24T14:15:02.571Z,11.18
2017-02-24T14:18:07.628Z,11.04
2017-02-24T14:21:12.995Z,11.00
2017-02-24T14:24:18.619Z,10.95
2017-02-24T14:27:16.298Z,10.81
2017-02-24T14:33:36.215Z,10.57
2017-02-24T14:36:41.661Z,10.52
2017-02-24T14:42:51.814Z,10.10
2017-02-24T14:45:59.880Z,9.79
2017-02-24T14:49:01.721Z,9.90
2017-02-24T14:52:06.972Z,9.91
2017-02-24T14:55:12.754Z,9.93
2017-02-24T14:58:09.565Z,10.02
2017-02-24T15:01:15.546Z,9.95
2017-02-24T15:04:29.683Z,9.97
2017-02-24T15:07:34.915Z,9.97
2017-02-24T15:10:40.277Z,9.88
2017-02-24T15:13:37.584Z,9.70
2017-02-24T15:19:57.075Z,9.45
2017-02-24T15:26:07.374Z,9.52
2017-02-24T15:29:11.899Z,9.28
2017-02-24T15:32:16.965Z,9.08
2017-02-24T15:35:22.549Z,8.80
2017-02-24T15:38:27.739Z,8.42
2017-02-24T15:41:34.848Z,8.34
2017-02-24T15:44:32.630Z,8.17
2017-02-24T15:47:43.345Z,8.11
2017-02-24T15:50:48.661Z,8.02
2017-02-24T15:53:53.597Z,7.79
2017-02-24T15:56:53.881Z,7.59
2017-02-24T16:03:10.239Z,7.38
2017-02-24T16:09:15.589Z,7.25
2017-02-24T16:12:26.623Z,7.27
2017-02-24T16:15:31.991Z,7.45
2017-02-24T16:18:36.988Z,7.55
2017-02-24T16:21:42.746Z,7.60
2017-02-24T16:24:47.572Z,7.62
2017-02-24T16:27:43.034Z,7.20
2017-02-24T16:30:56.786Z,6.43
2017-02-24T16:34:01.253Z,5.98
2017-02-24T16:37:06.530Z,5.72
2017-02-24T16:40:11.552Z,5.51
2017-02-24T16:43:08.772Z,5.26
2017-02-24T17:16:59.465Z,4.27
2017-02-24T17:23:06.015Z,4.19
2017-02-24T17:32:18.482Z,3.94
2017-02-24T17:38:23.353Z,3.88
2017-02-24T17:44:31.322Z,3.69
2017-02-24T17:53:43.579Z,3.50
2017-02-24T17:59:51.262Z,3.43
2017-02-24T18:05:58.854Z,3.38
2017-02-24T18:30:31.797Z,3.24
2017-02-24T18:48:46.960Z,3.09
2017-02-24T19:04:16.030Z,2.96
2017-02-24T20:27:00.662Z,2.43
2017-02-24T20:39:17.437Z,2.37
2017-02-24T21:31:26.463Z,2.26
2017-02-24T21:37:34.460Z,2.22
2017-02-24T21:56:00.792Z,2.11
2017-02-24T22:11:21.655Z,1.88
2017-02-24T22:26:41.233Z,1.79
2017-02-24T23:18:49.491Z,1.42
